createdAt,value
2022-10-31T00:01:35.816Z,17.42
2022-10-31T00:04:05.430Z,14.32
2022-10-31T00:06:34.145Z,16.63
2022-10-31T00:09:05.201Z,14.40
2022-10-31T00:11:33.975Z,14.57
2022-10-31T00:14:02.594Z,17.33
2022-10-31T00:16:31.300Z,25.17
2022-10-31T00:19:02.233Z,20.65
2022-10-31T00:21:32.309Z,13.77
2022-10-31T00:24:01.514Z,17.02
2022-10-31T00:26:32.161Z,15.55
2022-10-31T00:29:01.080Z,14.93
2022-10-31T00:31:29.948Z,17.60
2022-10-31T00:33:58.599Z,13.30
2022-10-31T00:36:27.102Z,13.82
2022-10-31T00:38:55.961Z,17.60
2022-10-31T00:41:24.406Z,10.20
2022-10-31T00:43:52.783Z,15.55
2022-10-31T00:46:21.186Z,15.02
2022-10-31T00:48:49.627Z,13.40
2022-10-31T00:51:18.267Z,21.52
2022-10-31T00:53:46.706Z,18.52
2022-10-31T00:56:15.202Z,30.40
2022-10-31T00:58:43.675Z,13.38
2022-10-31T01:01:12.152Z,15.98
2022-10-31T01:03:40.985Z,17.58
2022-10-31T01:06:11.242Z,19.35
2022-10-31T01:08:40.470Z,12.45
2022-10-31T01:11:23.579Z,11.43
2022-10-31T01:13:54.151Z,13.90
2022-10-31T01:16:25.141Z,20.58
2022-10-31T01:18:54.010Z,16.60
2022-10-31T01:21:24.116Z,19.90
2022-10-31T01:23:54.917Z,11.68
2022-10-31T01:26:26.415Z,20.58
2022-10-31T01:29:02.960Z,13.35
2022-10-31T01:31:34.486Z,13.48
2022-10-31T01:34:04.115Z,14.77
2022-10-31T01:36:36.014Z,29.00
2022-10-31T01:39:10.456Z,10.13
2022-10-31T01:41:44.409Z,17.20
2022-10-31T01:44:15.783Z,9.98
2022-10-31T01:46:48.499Z,19.77
2022-10-31T01:49:38.623Z,12.30
2022-10-31T01:52:28.178Z,15.80
2022-10-31T01:54:59.828Z,16.92
2022-10-31T01:57:29.852Z,16.27
2022-10-31T02:00:01.815Z,15.48
2022-10-31T02:02:32.449Z,13.07
2022-10-31T02:05:03.596Z,16.52
2022-10-31T02:07:40.489Z,16.48
2022-10-31T02:10:09.308Z,12.98
2022-10-31T02:12:39.131Z,17.48
2022-10-31T02:15:09.242Z,15.32
2022-10-31T02:17:37.754Z,18.17
2022-10-31T02:20:24.677Z,15.07
2022-10-31T02:23:20.982Z,18.08
2022-10-31T02:26:24.750Z,14.20
2022-10-31T02:29:24.014Z,17.33
2022-10-31T02:32:15.151Z,19.25
2022-10-31T02:34:59.219Z,16.92
2022-10-31T02:37:46.435Z,12.50
2022-10-31T02:40:23.997Z,22.88
2022-10-31T02:43:04.899Z,14.45
2022-10-31T02:45:58.747Z,15.68
2022-10-31T02:48:36.113Z,22.02
2022-10-31T02:51:06.105Z,20.73
2022-10-31T02:53:35.879Z,26.30
2022-10-31T02:56:13.410Z,24.00
2022-10-31T02:59:00.841Z,21.75
2022-10-31T03:01:50.201Z,21.40
2022-10-31T03:04:57.367Z,15.85
2022-10-31T03:08:01.096Z,21.90
2022-10-31T03:10:54.347Z,18.40
2022-10-31T03:16:09.282Z,24.10
2022-10-31T03:18:47.690Z,17.80
2022-10-31T03:21:22.804Z,17.67
2022-10-31T03:23:53.110Z,34.70
2022-10-31T03:26:24.212Z,18.75
2022-10-31T03:29:03.017Z,22.08
2022-10-31T03:31:38.068Z,24.45
2022-10-31T03:34:08.635Z,21.00
2022-10-31T03:36:39.966Z,31.17
2022-10-31T03:39:13.731Z,30.13
2022-10-31T03:42:00.755Z,27.52
2022-10-31T03:44:31.217Z,29.17
2022-10-31T03:47:00.635Z,18.58
2022-10-31T03:49:29.954Z,29.02
2022-10-31T03:52:06.029Z,38.45
2022-10-31T03:54:43.356Z,25.23
2022-10-31T03:57:17.367Z,25.55
2022-10-31T03:59:51.896Z,36.05
2022-10-31T04:02:26.961Z,18.42
2022-10-31T04:04:56.647Z,28.52
2022-10-31T04:07:31.078Z,23.17
2022-10-31T04:10:03.053Z,22.00
2022-10-31T04:12:33.218Z,26.30
2022-10-31T04:15:04.017Z,25.10
2022-10-31T04:17:35.592Z,28.67
2022-10-31T04:20:04.439Z,25.73
2022-10-31T04:22:32.973Z,23.98
2022-10-31T04:25:01.363Z,21.88
2022-10-31T04:27:29.735Z,28.17
2022-10-31T04:29:58.193Z,37.28
2022-10-31T04:32:27.109Z,29.60
2022-10-31T04:34:55.468Z,24.05
2022-10-31T04:37:23.797Z,23.13
2022-10-31T04:39:52.125Z,26.10
2022-10-31T04:42:20.550Z,31.38
2022-10-31T04:44:48.902Z,23.00
2022-10-31T04:47:17.447Z,31.92
2022-10-31T04:49:45.810Z,26.55
2022-10-31T04:52:15.459Z,32.25
2022-10-31T04:54:43.819Z,26.02
2022-10-31T04:57:12.250Z,31.83
2022-10-31T04:59:40.668Z,26.20
2022-10-31T05:02:09.199Z,28.00
2022-10-31T05:04:37.595Z,31.67
2022-10-31T05:07:06.007Z,30.40
2022-10-31T05:09:34.389Z,31.00
2022-10-31T05:12:02.891Z,22.55
2022-10-31T05:14:31.395Z,24.10
2022-10-31T05:16:59.754Z,25.45
2022-10-31T05:19:29.108Z,26.48
2022-10-31T05:21:57.594Z,19.98
2022-10-31T05:24:26.986Z,26.10
2022-10-31T05:26:55.363Z,31.50
2022-10-31T05:29:23.759Z,21.63
2022-10-31T05:31:52.175Z,21.20
2022-10-31T05:34:20.551Z,24.77
2022-10-31T05:36:49.009Z,18.30
2022-10-31T05:39:18.383Z,37.67
2022-10-31T05:41:46.721Z,32.20
2022-10-31T05:44:15.093Z,24.52
2022-10-31T05:46:43.485Z,27.55
2022-10-31T05:49:11.887Z,28.60
2022-10-31T05:51:40.256Z,24.85
2022-10-31T05:54:10.845Z,35.58
2022-10-31T05:56:43.237Z,30.58
2022-10-31T05:59:11.644Z,26.33
2022-10-31T06:01:40.158Z,30.38
2022-10-31T06:04:08.679Z,21.45
2022-10-31T06:06:37.561Z,27.42
2022-10-31T06:09:05.920Z,32.58
2022-10-31T06:11:34.247Z,38.03
2022-10-31T06:14:02.954Z,34.10
2022-10-31T06:16:31.386Z,23.85
2022-10-31T06:18:59.806Z,30.27
2022-10-31T06:21:28.323Z,31.08
2022-10-31T06:23:56.843Z,27.05
2022-10-31T06:26:25.386Z,30.70
2022-10-31T06:28:56.114Z,23.63
2022-10-31T06:31:26.086Z,33.80
2022-10-31T06:33:54.641Z,30.38
2022-10-31T06:36:23.219Z,31.83
2022-10-31T06:38:51.622Z,30.00
2022-10-31T06:41:21.028Z,33.92
2022-10-31T06:43:49.415Z,44.55
2022-10-31T06:46:17.811Z,30.13
2022-10-31T06:48:46.241Z,23.30
2022-10-31T06:51:14.793Z,34.00
2022-10-31T06:53:43.205Z,37.60
2022-10-31T06:56:11.663Z,44.53
2022-10-31T06:58:40.074Z,31.63
2022-10-31T07:01:08.662Z,26.10
2022-10-31T07:03:40.316Z,34.15
2022-10-31T07:06:09.050Z,35.22
2022-10-31T07:08:37.464Z,31.45
2022-10-31T07:11:06.010Z,35.03
2022-10-31T07:13:34.458Z,32.30
2022-10-31T07:16:05.565Z,37.78
2022-10-31T07:18:34.964Z,29.42
2022-10-31T07:21:03.701Z,28.90
2022-10-31T07:23:32.478Z,37.30
2022-10-31T07:26:00.925Z,34.78
2022-10-31T07:28:29.522Z,24.55
2022-10-31T07:30:58.669Z,32.90
2022-10-31T07:33:27.612Z,46.90
2022-10-31T07:35:56.039Z,42.45
2022-10-31T07:38:24.599Z,23.67
2022-10-31T07:40:53.858Z,30.45
2022-10-31T07:43:22.376Z,27.88
2022-10-31T07:45:52.994Z,28.17
2022-10-31T07:48:21.955Z,26.42
2022-10-31T07:50:50.507Z,34.22
2022-10-31T07:53:19.009Z,37.30
2022-10-31T07:55:47.430Z,29.15
2022-10-31T07:58:17.719Z,36.13
2022-10-31T08:00:48.024Z,29.75
2022-10-31T08:03:18.758Z,29.63
2022-10-31T08:05:47.284Z,25.58
2022-10-31T08:08:16.485Z,44.28
2022-10-31T08:10:45.101Z,29.02
2022-10-31T08:13:14.800Z,31.63
2022-10-31T08:15:45.375Z,22.58
2022-10-31T08:18:15.475Z,16.88
2022-10-31T08:20:44.402Z,21.95
2022-10-31T08:23:13.713Z,27.42
2022-10-31T08:25:43.195Z,25.63
2022-10-31T08:28:12.831Z,37.33
2022-10-31T08:30:42.348Z,32.25
2022-10-31T08:33:19.021Z,32.85
2022-10-31T08:35:48.474Z,29.65
2022-10-31T08:38:16.991Z,27.67
2022-10-31T08:40:50.310Z,34.67
2022-10-31T08:43:20.094Z,35.85
2022-10-31T08:45:50.313Z,41.85
2022-10-31T08:48:18.793Z,36.10
2022-10-31T08:50:47.879Z,28.08
2022-10-31T08:53:18.936Z,39.00
2022-10-31T08:55:49.375Z,36.97
2022-10-31T08:58:20.006Z,38.22
2022-10-31T09:00:50.778Z,37.55
2022-10-31T09:03:22.474Z,36.47
2022-10-31T09:05:51.966Z,41.35
2022-10-31T09:08:20.539Z,39.42
2022-10-31T09:10:49.166Z,41.35
2022-10-31T09:13:19.881Z,36.65
2022-10-31T09:15:49.893Z,41.30
2022-10-31T09:18:21.363Z,41.17
2022-10-31T09:20:50.854Z,49.35
2022-10-31T09:23:21.523Z,40.50
2022-10-31T09:25:52.733Z,45.78
2022-10-31T09:28:23.461Z,39.07
2022-10-31T09:30:53.780Z,32.70
2022-10-31T09:33:22.588Z,40.30
2022-10-31T09:35:52.126Z,44.72
2022-10-31T09:38:21.947Z,60.75
2022-10-31T09:41:02.491Z,54.47
2022-10-31T09:43:54.199Z,66.75
2022-10-31T09:46:41.911Z,33.10
2022-10-31T09:49:32.307Z,43.38
2022-10-31T09:52:11.774Z,46.95
2022-10-31T09:54:48.446Z,42.08
2022-10-31T09:57:23.427Z,58.65
2022-10-31T09:59:52.652Z,41.40
2022-10-31T10:02:40.646Z,45.80
2022-10-31T10:05:15.675Z,50.70
2022-10-31T10:08:08.347Z,54.33
2022-10-31T10:11:13.004Z,37.67
2022-10-31T10:13:58.837Z,62.92
2022-10-31T10:16:52.716Z,54.28
2022-10-31T10:19:34.670Z,46.92
2022-10-31T10:22:15.020Z,66.22
2022-10-31T10:24:50.868Z,48.42
2022-10-31T10:27:44.044Z,51.30
2022-10-31T10:30:12.400Z,54.90
2022-10-31T10:32:59.962Z,53.70
2022-10-31T10:35:35.862Z,40.63
2022-10-31T10:38:25.665Z,37.78
2022-10-31T10:40:54.976Z,28.92
2022-10-31T10:43:43.936Z,36.50
2022-10-31T10:46:38.470Z,50.70
2022-10-31T10:49:15.543Z,52.80
2022-10-31T10:54:48.053Z,41.30
2022-10-31T10:57:19.581Z,47.80
2022-10-31T10:59:48.474Z,43.33
2022-10-31T11:02:23.549Z,50.90
2022-10-31T11:04:55.074Z,52.80
2022-10-31T11:07:24.029Z,37.50
2022-10-31T11:10:04.539Z,55.25
2022-10-31T11:12:34.765Z,50.30
2022-10-31T11:15:17.472Z,35.75
2022-10-31T11:17:50.685Z,44.22
2022-10-31T11:20:19.385Z,38.55
2022-10-31T11:22:49.304Z,78.60
2022-10-31T11:25:20.877Z,38.30
2022-10-31T11:28:15.424Z,61.25
2022-10-31T11:30:49.781Z,35.65
2022-10-31T11:33:40.526Z,35.15
2022-10-31T11:36:31.683Z,36.15
2022-10-31T11:39:04.625Z,46.03
2022-10-31T11:41:36.755Z,37.67
2022-10-31T11:44:10.927Z,39.47
2022-10-31T11:46:42.367Z,54.25
2022-10-31T11:49:54.055Z,51.80
2022-10-31T11:52:29.229Z,37.95
2022-10-31T11:55:30.015Z,37.05
2022-10-31T11:57:58.840Z,39.42
2022-10-31T12:00:33.478Z,39.53
2022-10-31T12:03:23.866Z,41.20
2022-10-31T12:06:15.616Z,52.72
2022-10-31T12:08:44.364Z,40.17
2022-10-31T12:11:29.541Z,69.45
2022-10-31T12:14:44.053Z,46.65
2022-10-31T12:17:26.072Z,47.70
2022-10-31T12:20:24.065Z,59.60
2022-10-31T12:23:21.836Z,41.70
2022-10-31T12:26:08.924Z,53.55
2022-10-31T12:29:03.658Z,31.45
2022-10-31T12:32:10.251Z,41.40
2022-10-31T12:34:38.815Z,50.92
2022-10-31T12:37:58.983Z,33.20
2022-10-31T12:41:01.020Z,37.13
2022-10-31T12:43:47.395Z,30.15
2022-10-31T12:46:30.596Z,27.63
2022-10-31T12:49:13.219Z,25.20
2022-10-31T12:51:54.271Z,29.13
2022-10-31T12:54:39.802Z,56.42
2022-10-31T12:57:32.439Z,41.75
2022-10-31T13:00:05.886Z,35.22
2022-10-31T13:02:58.924Z,49.70
2022-10-31T13:05:35.428Z,36.80
2022-10-31T13:08:12.097Z,28.10
2022-10-31T13:10:49.724Z,58.28
2022-10-31T13:13:27.311Z,33.22
2022-10-31T13:16:03.805Z,34.33
2022-10-31T13:18:39.657Z,38.55
2022-10-31T13:21:21.938Z,33.25
2022-10-31T13:23:55.141Z,29.08
2022-10-31T13:26:42.920Z,61.97
2022-10-31T13:29:34.590Z,28.42
2022-10-31T13:32:07.781Z,30.27
2022-10-31T13:34:51.574Z,33.40
2022-10-31T13:37:39.133Z,25.00
2022-10-31T13:40:19.699Z,31.20
2022-10-31T13:43:07.354Z,35.60
2022-10-31T13:45:36.007Z,27.85
2022-10-31T13:48:07.536Z,35.22
2022-10-31T13:50:35.932Z,33.15
2022-10-31T13:53:12.500Z,36.00
2022-10-31T13:55:50.297Z,26.50
2022-10-31T13:58:30.476Z,34.28
2022-10-31T14:01:12.120Z,37.97
2022-10-31T14:04:06.254Z,23.80
2022-10-31T14:06:39.598Z,37.30
2022-10-31T14:09:38.471Z,26.25
2022-10-31T14:12:29.509Z,44.15
2022-10-31T14:15:05.622Z,28.83
2022-10-31T14:18:05.471Z,35.50
2022-10-31T14:20:45.065Z,18.35
2022-10-31T14:23:33.542Z,20.88
2022-10-31T14:26:29.660Z,24.38
2022-10-31T14:29:03.081Z,23.20
2022-10-31T14:31:40.165Z,23.27
2022-10-31T14:34:32.906Z,25.55
2022-10-31T14:37:38.562Z,32.50
2022-10-31T14:40:32.730Z,32.15
2022-10-31T14:43:29.784Z,22.25
2022-10-31T14:46:23.246Z,33.90
2022-10-31T14:49:05.088Z,18.95
2022-10-31T14:51:40.662Z,28.83
2022-10-31T14:54:16.207Z,24.70
2022-10-31T14:56:52.098Z,28.20
2022-10-31T14:59:25.447Z,30.92
2022-10-31T15:02:09.751Z,21.85
2022-10-31T15:04:39.387Z,23.48
2022-10-31T15:07:19.141Z,18.33
2022-10-31T15:10:01.815Z,28.20
2022-10-31T15:12:33.056Z,19.48
2022-10-31T15:15:17.921Z,19.77
2022-10-31T15:17:57.279Z,15.50
2022-10-31T15:20:28.594Z,16.30
2022-10-31T15:22:59.792Z,19.17
2022-10-31T15:25:34.561Z,13.20
2022-10-31T15:28:14.806Z,27.95
2022-10-31T15:30:56.127Z,26.63
2022-10-31T15:33:38.662Z,35.47
2022-10-31T15:36:23.923Z,17.58
2022-10-31T15:38:59.647Z,35.45
2022-10-31T15:41:37.087Z,16.35
2022-10-31T15:44:20.655Z,25.98
2022-10-31T15:46:59.408Z,21.08
2022-10-31T15:49:38.279Z,29.60
2022-10-31T15:52:41.009Z,33.55
2022-10-31T15:55:16.393Z,22.35
2022-10-31T15:57:48.083Z,23.67
2022-10-31T16:00:39.117Z,21.30
2022-10-31T16:03:07.504Z,28.40
2022-10-31T16:05:47.879Z,21.00
2022-10-31T16:08:31.765Z,17.45
2022-10-31T16:11:03.962Z,24.77
2022-10-31T16:13:38.836Z,21.63
2022-10-31T16:19:06.499Z,27.15
2022-10-31T16:21:38.173Z,15.05
2022-10-31T16:24:26.158Z,20.42
2022-10-31T16:26:59.148Z,23.02
2022-10-31T16:29:42.717Z,19.63
2022-10-31T16:32:27.766Z,13.38
2022-10-31T16:35:01.468Z,21.77
2022-10-31T16:37:30.293Z,30.52
2022-10-31T16:39:58.783Z,28.85
2022-10-31T16:42:27.836Z,21.75
2022-10-31T16:44:56.288Z,32.70
2022-10-31T16:47:28.445Z,20.27
2022-10-31T16:50:00.808Z,27.83
2022-10-31T16:52:38.062Z,28.90
2022-10-31T16:55:20.450Z,21.80
2022-10-31T16:57:55.252Z,23.83
2022-10-31T17:00:27.512Z,22.98
2022-10-31T17:02:57.842Z,18.63
2022-10-31T17:05:30.592Z,15.38
2022-10-31T17:08:00.533Z,19.20
2022-10-31T17:10:30.759Z,12.07
2022-10-31T17:13:03.612Z,23.25
2022-10-31T17:15:40.166Z,17.60
2022-10-31T17:18:12.859Z,18.60
2022-10-31T17:20:41.938Z,10.77
2022-10-31T17:23:12.510Z,13.00
2022-10-31T17:25:41.331Z,27.42
2022-10-31T17:28:14.611Z,21.30
2022-10-31T17:30:44.049Z,15.23
2022-10-31T17:33:15.547Z,22.90
2022-10-31T17:35:47.498Z,13.98
2022-10-31T17:38:16.253Z,20.10
2022-10-31T17:40:45.106Z,13.40
2022-10-31T17:43:13.686Z,14.35
2022-10-31T17:45:42.518Z,18.92
2022-10-31T17:48:12.488Z,18.80
2022-10-31T17:50:41.016Z,31.85
2022-10-31T17:53:09.639Z,15.90
2022-10-31T17:55:38.134Z,23.33
2022-10-31T17:58:06.792Z,23.35
2022-10-31T18:00:35.261Z,12.57
2022-10-31T18:03:04.508Z,17.88
2022-10-31T18:05:34.330Z,21.75
2022-10-31T18:08:04.406Z,19.35
2022-10-31T18:10:32.889Z,20.88
2022-10-31T18:13:01.594Z,24.05
2022-10-31T18:15:30.557Z,13.05
2022-10-31T18:18:00.334Z,14.90
2022-10-31T18:20:29.338Z,14.27
2022-10-31T18:22:57.786Z,31.23
2022-10-31T18:25:26.245Z,28.08
2022-10-31T18:27:54.677Z,16.60
2022-10-31T18:30:23.075Z,17.55
2022-10-31T18:32:51.883Z,17.27
2022-10-31T18:35:20.482Z,16.20
2022-10-31T18:37:48.833Z,19.98
2022-10-31T18:40:17.312Z,19.90
2022-10-31T18:42:45.693Z,19.90
2022-10-31T18:45:31.256Z,24.90
2022-10-31T18:48:02.582Z,34.17
2022-10-31T18:50:31.224Z,19.65
2022-10-31T18:52:59.877Z,21.30
2022-10-31T18:55:28.578Z,21.10
2022-10-31T18:57:57.125Z,17.75
2022-10-31T19:00:26.471Z,44.65
2022-10-31T19:02:56.572Z,26.05
2022-10-31T19:05:25.098Z,29.90
2022-10-31T19:07:53.506Z,18.20
2022-10-31T19:10:21.921Z,19.27
2022-10-31T19:12:50.281Z,18.73
2022-10-31T19:15:19.641Z,24.58
2022-10-31T19:17:48.101Z,17.30
2022-10-31T19:20:16.618Z,16.45
2022-10-31T19:22:44.943Z,18.25
2022-10-31T19:25:13.308Z,12.63
2022-10-31T19:27:41.871Z,32.83
2022-10-31T19:30:10.957Z,15.27
2022-10-31T19:32:40.414Z,15.82
2022-10-31T19:35:09.275Z,22.02
2022-10-31T19:37:39.677Z,24.65
2022-10-31T19:40:09.352Z,19.63
2022-10-31T19:42:38.830Z,16.80
2022-10-31T19:45:07.598Z,18.10
2022-10-31T19:47:35.949Z,37.30
2022-10-31T19:50:04.988Z,20.98
2022-10-31T19:52:35.079Z,11.00
2022-10-31T19:55:03.815Z,15.90
2022-10-31T19:58:00.258Z,11.35
2022-10-31T20:00:23.630Z,31.00
2022-10-31T20:02:51.985Z,10.45
2022-10-31T20:05:21.390Z,16.85
2022-10-31T20:07:49.792Z,17.80
2022-10-31T20:10:18.167Z,30.85
2022-10-31T20:12:46.561Z,18.95
2022-10-31T20:15:15.083Z,11.45
2022-10-31T20:17:43.572Z,13.27
2022-10-31T20:20:12.347Z,12.55
2022-10-31T20:22:40.899Z,22.75
2022-10-31T20:25:09.323Z,19.33
2022-10-31T20:27:37.917Z,13.80
2022-10-31T20:30:06.986Z,16.27
2022-10-31T20:32:36.008Z,10.70
2022-10-31T20:35:04.707Z,15.45
2022-10-31T20:37:33.145Z,21.67
2022-10-31T20:40:01.517Z,10.45
2022-10-31T20:42:29.847Z,11.50
2022-10-31T20:44:58.220Z,15.85
2022-10-31T20:47:26.687Z,12.40
2022-10-31T20:49:55.185Z,15.70
2022-10-31T20:52:23.558Z,12.10
2022-10-31T20:54:51.957Z,22.52
2022-10-31T20:57:20.926Z,18.27
2022-10-31T20:59:49.978Z,19.70
2022-10-31T21:02:18.446Z,23.77
2022-10-31T21:04:46.936Z,20.85
2022-10-31T21:07:15.338Z,20.38
2022-10-31T21:09:43.735Z,27.17
2022-10-31T21:12:12.182Z,20.58
2022-10-31T21:14:40.525Z,20.67
2022-10-31T21:17:08.994Z,23.08
2022-10-31T21:19:37.546Z,21.85
2022-10-31T21:22:06.006Z,13.07
2022-10-31T21:24:34.814Z,26.75
2022-10-31T21:27:07.224Z,21.23
2022-10-31T21:29:36.993Z,21.98
2022-10-31T21:32:05.472Z,12.50
2022-10-31T21:34:33.851Z,19.08
2022-10-31T21:37:02.199Z,17.48
2022-10-31T21:39:31.205Z,18.35
2022-10-31T21:41:59.707Z,17.15
2022-10-31T21:44:28.045Z,20.60
2022-10-31T21:46:56.584Z,13.00
2022-10-31T21:49:25.023Z,16.58
2022-10-31T21:51:53.386Z,18.88
2022-10-31T21:54:27.646Z,15.85
2022-10-31T21:56:57.953Z,11.50
2022-10-31T21:59:27.032Z,16.17
2022-10-31T22:02:00.789Z,18.35
2022-10-31T22:04:29.645Z,19.70
2022-10-31T22:06:58.046Z,10.93
2022-10-31T22:09:26.577Z,15.23
2022-10-31T22:11:54.938Z,19.95
2022-10-31T22:14:23.328Z,23.05
2022-10-31T22:16:51.756Z,35.50
2022-10-31T22:19:20.109Z,13.43
2022-10-31T22:21:48.968Z,17.83
2022-10-31T22:24:18.487Z,18.55
2022-10-31T22:26:46.839Z,14.00
2022-10-31T22:29:17.454Z,18.92
2022-10-31T22:31:50.600Z,22.90
2022-10-31T22:34:22.056Z,13.07
2022-10-31T22:36:50.539Z,12.20
2022-10-31T22:39:19.019Z,13.75
2022-10-31T22:41:47.450Z,33.22
2022-10-31T22:44:15.772Z,12.02
2022-10-31T22:46:44.156Z,11.43
2022-10-31T22:49:16.944Z,14.55
2022-10-31T22:51:45.781Z,16.55
2022-10-31T22:54:16.307Z,11.48
2022-10-31T22:56:45.249Z,13.40
2022-10-31T22:59:15.063Z,19.45
2022-10-31T23:01:47.636Z,12.75
2022-10-31T23:04:17.033Z,19.50
2022-10-31T23:06:45.861Z,17.50
2022-10-31T23:09:16.346Z,20.42
2022-10-31T23:11:44.946Z,22.05
2022-10-31T23:14:20.621Z,9.23
2022-10-31T23:16:52.182Z,32.05
2022-10-31T23:19:22.757Z,34.00
2022-10-31T23:21:57.367Z,17.60
2022-10-31T23:24:39.139Z,10.38
2022-10-31T23:27:24.255Z,21.35
2022-10-31T23:29:55.295Z,14.75
2022-10-31T23:32:25.154Z,18.83
2022-10-31T23:34:56.087Z,15.40
2022-10-31T23:37:27.550Z,24.10
2022-10-31T23:39:56.294Z,14.38
2022-10-31T23:42:25.807Z,10.35
2022-10-31T23:44:54.721Z,16.23
2022-10-31T23:47:23.710Z,36.78
2022-10-31T23:49:52.195Z,9.50
2022-10-31T23:52:20.775Z,30.00
2022-10-31T23:54:49.166Z,16.05
2022-10-31T23:57:17.976Z,14.70
2022-10-31T23:59:47.851Z,34.28
